Time;durP1;ratioP1;P1;durP2;ratioP2;P2;SDS_P1;SDS_P2;PMS_P1;PMS_P2;Temp;Humidity;BMP_temperature;BMP_pressure;BME280_temperature;BME280_humidity;BME280_pressure;Samples;Min_cycle;Max_cycle;Signal;HPM_P1;HPM_P2
2023/12/16 00:00:45;;;;;;;;;;;;;;;;;;5080849;28;19969;-67
2023/12/16 00:03:10;;;;;;;;;;;;;;;;;;5089211;28;19912;-67
2023/12/16 00:05:36;;;;;;;;;;;;;;;;;;5092044;28;20368;-67
2023/12/16 00:08:02;;;;;;;;;;;;;;;;;;5091997;28;20015;-67
2023/12/16 00:10:28;;;;;;;;;;;;;;;;;;5090889;28;19959;-67
2023/12/16 00:12:54;;;;;;;;;;;;;;;;;;5081213;28;19915;-67
2023/12/16 00:15:20;;;;;;;;;;;;;;;;;;5081212;28;19923;-63
2023/12/16 00:17:46;;;;;;;;;;;;;;;;;;5083482;28;19912;-63
2023/12/16 00:20:12;;;;;;;;;;;;;;;;;;5074751;28;19998;-63
2023/12/16 00:22:38;;;;;;;;;;;;;;;;;;5087804;28;20372;-63
2023/12/16 00:25:04;;;;;;;;;;;;;;;;;;5080062;28;19923;-63
2023/12/16 00:27:30;;;;;;;;;;;;;;;;;;5091694;28;19955;-63
2023/12/16 00:29:56;;;;;;;;;;;;;;;;;;5094978;28;19951;-63
2023/12/16 00:32:21;;;;;;;;;;;;;;;;;;5075052;28;20439;-63
2023/12/16 00:34:47;;;;;;;;;;;;;;;;;;5074852;28;19919;-63
2023/12/16 00:37:13;;;;;;;;;;;;;;;;;;5074970;28;19931;-63
2023/12/16 00:39:39;;;;;;;;;;;;;;;;;;5077197;28;19923;-63
2023/12/16 00:42:05;;;;;;;;;;;;;;;;;;5082725;28;19955;-63
2023/12/16 00:44:33;;;;;;;;;;;;;;;;;;5074679;28;19909;-63
2023/12/16 00:46:59;;;;;;;;;;;;;;;;;;5074997;28;20354;-63
2023/12/16 00:49:25;;;;;;;;;;;;;;;;;;5074335;28;19909;-63
2023/12/16 00:51:51;;;;;;;;;;;;;;;;;;5074716;28;20004;-63
2023/12/16 00:54:17;;;;;;;;;;;;;;;;;;5077908;28;19954;-63
2023/12/16 00:56:43;;;;;;;;;;;;;;;;;;5085160;28;19916;-63
2023/12/16 00:59:09;;;;;;;;;;;;;;;;;;5093421;28;19947;-63
2023/12/16 01:01:35;;;;;;;;;;;;;;;;;;5085429;28;20327;-62
2023/12/16 01:04:01;;;;;;;;;;;;;;;;;;5083216;28;19959;-63
2023/12/16 01:06:26;;;;;;;;;;;;;;;;;;5076510;28;19913;-63
2023/12/16 01:08:52;;;;;;;;;;;;;;;;;;5086344;28;20019;-63
2023/12/16 01:11:18;;;;;;;;;;;;;;;;;;5080052;28;20451;-63
2023/12/16 01:13:44;;;;;;;;;;;;;;;;;;5074079;28;19908;-63
2023/12/16 01:16:10;;;;;;;;;;;;;;;;;;5083771;28;20388;-63
2023/12/16 01:18:36;;;;;;;;;;;;;;;;;;5093531;28;19912;-62
2023/12/16 01:21:02;;;;;;;;;;;;;;;;;;5080743;28;19916;-63
2023/12/16 01:23:28;;;;;;;;;;;;;;;;;;5078812;28;19909;-63
2023/12/16 01:25:54;;;;;;;;;;;;;;;;;;5077005;28;20012;-65
2023/12/16 01:28:19;;;;;;;;;;;;;;;;;;5092987;28;19920;-65
2023/12/16 01:30:45;;;;;;;;;;;;;;;;;;5087874;28;19912;-65
2023/12/16 01:33:12;;;;;;;;;;;;;;;;;;5073883;28;20310;-65
2023/12/16 01:35:38;;;;;;;;;;;;;;;;;;5082152;28;19919;-66
2023/12/16 01:38:04;;;;;;;;;;;;;;;;;;5082304;28;19919;-66
2023/12/16 01:40:30;;;;;;;;;;;;;;;;;;5084940;28;19952;-65
2023/12/16 01:42:56;;;;;;;;;;;;;;;;;;5088505;28;19913;-65
2023/12/16 01:45:22;;;;;;;;;;;;;;;;;;5090744;28;19921;-65
2023/12/16 01:47:48;;;;;;;;;;;;;;;;;;5073610;28;20011;-66
2023/12/16 01:50:14;;;;;;;;;;;;;;;;;;5091827;28;19915;-65
2023/12/16 01:52:40;;;;;;;;;;;;;;;;;;5091241;28;19950;-66
2023/12/16 01:55:06;;;;;;;;;;;;;;;;;;5080515;28;19947;-65
2023/12/16 01:57:31;;;;;;;;;;;;;;;;;;5090230;28;20004;-65
2023/12/16 01:59:57;;;;;;;;;;;;;;;;;;5091597;28;19912;-65
2023/12/16 02:02:23;;;;;;;;;;;;;;;;;;5082426;28;19934;-67
2023/12/16 02:04:49;;;;;;;;;;;;;;;;;;5081961;28;19920;-67
2023/12/16 02:07:15;;;;;;;;;;;;;;;;;;5089748;28;20073;-67
2023/12/16 02:09:41;;;;;;;;;;;;;;;;;;5086653;28;19969;-67
2023/12/16 02:12:07;;;;;;;;;;;;;;;;;;5074380;28;19912;-68
2023/12/16 02:14:33;;;;;;;;;;;;;;;;;;5090316;28;20284;-67
2023/12/16 02:16:59;;;;;;;;;;;;;;;;;;5077728;28;19912;-67
2023/12/16 02:19:25;;;;;;;;;;;;;;;;;;5087137;28;19962;-67
2023/12/16 02:21:51;;;;;;;;;;;;;;;;;;5090540;28;19916;-67
2023/12/16 02:24:17;;;;;;;;;;;;;;;;;;5085511;28;19913;-67
2023/12/16 02:26:43;;;;;;;;;;;;;;;;;;5086504;28;19927;-67
2023/12/16 02:29:09;;;;;;;;;;;;;;;;;;5091016;28;19955;-67
2023/12/16 02:31:35;;;;;;;;;;;;;;;;;;5075651;28;19999;-67
2023/12/16 02:34:00;;;;;;;;;;;;;;;;;;5074515;28;19958;-66
2023/12/16 02:36:26;;;;;;;;;;;;;;;;;;5081598;28;19912;-68
2023/12/16 02:38:52;;;;;;;;;;;;;;;;;;5082594;28;20352;-68
2023/12/16 02:41:21;;;;;;;;;;;;;;;;;;5078142;28;19991;-67
2023/12/16 02:43:47;;;;;;;;;;;;;;;;;;5072515;28;19919;-67
2023/12/16 02:46:13;;;;;;;;;;;;;;;;;;5074931;28;19990;-68
2023/12/16 02:48:38;;;;;;;;;;;;;;;;;;5089692;28;20210;-67
2023/12/16 02:51:04;;;;;;;;;;;;;;;;;;5077379;28;20318;-67
2023/12/16 02:53:30;;;;;;;;;;;;;;;;;;5086354;28;19913;-67
2023/12/16 02:55:56;;;;;;;;;;;;;;;;;;5091954;28;19916;-68
2023/12/16 02:58:22;;;;;;;;;;;;;;;;;;5089961;28;20031;-67
2023/12/16 03:00:48;;;;;;;;;;;;;;;;;;5090309;28;20376;-68
2023/12/16 03:03:14;;;;;;;;;;;;;;;;;;5084059;28;19913;-68
2023/12/16 03:05:40;;;;;;;;;;;;;;;;;;5072896;28;20355;-68
2023/12/16 03:08:06;;;;;;;;;;;;;;;;;;5076641;28;19982;-66
2023/12/16 03:10:32;;;;;;;;;;;;;;;;;;5091694;28;19916;-68
2023/12/16 03:12:57;;;;;;;;;;;;;;;;;;5092184;28;20007;-68
2023/12/16 03:15:23;;;;;;;;;;;;;;;;;;5092060;28;20364;-68
2023/12/16 03:17:49;;;;;;;;;;;;;;;;;;5089097;28;20406;-68
2023/12/16 03:20:15;;;;;;;;;;;;;;;;;;5087069;28;19965;-68
2023/12/16 03:22:41;;;;;;;;;;;;;;;;;;5075949;28;20109;-68
2023/12/16 03:25:08;;;;;;;;;;;;;;;;;;5070992;28;19919;-69
2023/12/16 03:27:33;;;;;;;;;;;;;;;;;;5089263;28;19962;-68
2023/12/16 03:29:59;;;;;;;;;;;;;;;;;;5076136;28;19916;-67
2023/12/16 03:32:25;;;;;;;;;;;;;;;;;;5089670;28;19912;-68
2023/12/16 03:34:51;;;;;;;;;;;;;;;;;;5092315;28;19999;-67
2023/12/16 03:37:17;;;;;;;;;;;;;;;;;;5081551;28;20280;-68
2023/12/16 03:39:43;;;;;;;;;;;;;;;;;;5091953;28;19912;-68
2023/12/16 03:42:09;;;;;;;;;;;;;;;;;;5073131;28;20050;-68
2023/12/16 03:44:35;;;;;;;;;;;;;;;;;;5085100;28;20464;-68
2023/12/16 03:47:01;;;;;;;;;;;;;;;;;;5082384;28;20004;-68
2023/12/16 03:49:28;;;;;;;;;;;;;;;;;;5074875;28;19920;-69
2023/12/16 03:51:56;;;;;;;;;;;;;;;;;;5077786;28;19958;-68
2023/12/16 03:54:22;;;;;;;;;;;;;;;;;;5077240;28;20368;-68
2023/12/16 03:56:48;;;;;;;;;;;;;;;;;;5095827;28;19935;-67
2023/12/16 03:59:14;;;;;;;;;;;;;;;;;;5093914;28;19955;-67
2023/12/16 04:01:39;;;;;;;;;;;;;;;;;;5081408;28;19920;-66
2023/12/16 04:04:05;;;;;;;;;;;;;;;;;;5075519;28;20029;-68
2023/12/16 04:06:31;;;;;;;;;;;;;;;;;;5094045;28;19912;-68
2023/12/16 04:08:57;;;;;;;;;;;;;;;;;;5087689;28;19939;-67
2023/12/16 04:11:23;;;;;;;;;;;;;;;;;;5079018;28;19916;-66
2023/12/16 04:13:49;;;;;;;;;;;;;;;;;;5075087;28;20011;-68
2023/12/16 04:16:15;;;;;;;;;;;;;;;;;;5075873;28;19961;-67
2023/12/16 04:18:41;;;;;;;;;;;;;;;;;;5087575;28;20031;-68
2023/12/16 04:21:07;;;;;;;;;;;;;;;;;;5077759;28;19950;-69
2023/12/16 04:23:33;;;;;;;;;;;;;;;;;;5086214;28;19912;-68
2023/12/16 04:25:59;;;;;;;;;;;;;;;;;;5091198;28;19922;-69
2023/12/16 04:28:25;;;;;;;;;;;;;;;;;;5078040;28;19920;-68
2023/12/16 04:30:51;;;;;;;;;;;;;;;;;;5082768;28;19912;-68
2023/12/16 04:33:17;;;;;;;;;;;;;;;;;;5082070;28;19940;-67
2023/12/16 04:35:43;;;;;;;;;;;;;;;;;;5093775;28;19912;-68
2023/12/16 04:38:09;;;;;;;;;;;;;;;;;;5089679;28;20058;-68
2023/12/16 04:40:34;;;;;;;;;;;;;;;;;;5093053;28;20425;-67
2023/12/16 04:43:00;;;;;;;;;;;;;;;;;;5093245;28;19916;-68
2023/12/16 04:45:26;;;;;;;;;;;;;;;;;;5083030;28;19912;-68
2023/12/16 04:47:52;;;;;;;;;;;;;;;;;;5085366;28;20361;-67
2023/12/16 04:50:18;;;;;;;;;;;;;;;;;;5073123;28;19909;-67
2023/12/16 04:52:44;;;;;;;;;;;;;;;;;;5078927;28;19939;-68
2023/12/16 04:55:10;;;;;;;;;;;;;;;;;;5093425;28;19919;-67
2023/12/16 04:57:36;;;;;;;;;;;;;;;;;;5082745;28;19975;-67
2023/12/16 05:00:04;;;;;;;;;;;;;;;;;;5083394;28;19916;-69
2023/12/16 05:02:30;;;;;;;;;;;;;;;;;;5079170;28;19920;-65
2023/12/16 05:04:56;;;;;;;;;;;;;;;;;;5081745;28;20372;-68
2023/12/16 05:07:22;;;;;;;;;;;;;;;;;;5092745;28;19916;-69
2023/12/16 05:09:48;;;;;;;;;;;;;;;;;;5089503;28;19935;-68
2023/12/16 05:12:13;;;;;;;;;;;;;;;;;;5087398;28;19916;-69
2023/12/16 05:14:42;;;;;;;;;;;;;;;;;;5082868;28;19952;-68
2023/12/16 05:17:08;;;;;;;;;;;;;;;;;;5074341;28;20431;-68
2023/12/16 05:19:34;;;;;;;;;;;;;;;;;;5088401;28;20062;-68
2023/12/16 05:22:00;;;;;;;;;;;;;;;;;;5092724;28;20296;-68
2023/12/16 05:24:26;;;;;;;;;;;;;;;;;;5092764;28;19922;-67
2023/12/16 05:26:52;;;;;;;;;;;;;;;;;;5089263;28;19916;-65
2023/12/16 05:29:18;;;;;;;;;;;;;;;;;;5092276;28;20015;-66
2023/12/16 05:31:44;;;;;;;;;;;;;;;;;;5088525;28;20411;-66
2023/12/16 05:34:10;;;;;;;;;;;;;;;;;;5085662;28;19912;-66
2023/12/16 05:36:36;;;;;;;;;;;;;;;;;;5090018;28;20016;-66
2023/12/16 05:39:02;;;;;;;;;;;;;;;;;;5092864;28;19954;-66
2023/12/16 05:41:28;;;;;;;;;;;;;;;;;;5088484;28;20346;-66
2023/12/16 05:43:54;;;;;;;;;;;;;;;;;;5091926;28;19999;-65
2023/12/16 05:46:20;;;;;;;;;;;;;;;;;;5090473;28;20394;-66
2023/12/16 05:48:46;;;;;;;;;;;;;;;;;;5091050;28;19998;-66
2023/12/16 05:51:12;;;;;;;;;;;;;;;;;;5091945;28;19923;-66
2023/12/16 05:53:38;;;;;;;;;;;;;;;;;;5089084;28;19912;-66
2023/12/16 05:56:04;;;;;;;;;;;;;;;;;;5090221;28;19962;-66
2023/12/16 05:58:30;;;;;;;;;;;;;;;;;;5092733;28;19912;-65
2023/12/16 06:00:56;;;;;;;;;;;;;;;;;;5085631;28;19955;-65
2023/12/16 06:03:22;;;;;;;;;;;;;;;;;;5087806;28;19974;-66
2023/12/16 06:05:48;;;;;;;;;;;;;;;;;;5091863;28;20291;-66
2023/12/16 06:08:15;;;;;;;;;;;;;;;;;;5092479;28;19916;-66
2023/12/16 06:10:41;;;;;;;;;;;;;;;;;;5090287;28;19950;-66
2023/12/16 06:13:07;;;;;;;;;;;;;;;;;;5086656;28;20001;-66
2023/12/16 06:15:33;;;;;;;;;;;;;;;;;;5086833;28;20256;-65
2023/12/16 06:18:03;;;;;;;;;;;;;;;;;;5092851;28;19935;-66
2023/12/16 06:20:29;;;;;;;;;;;;;;;;;;5087955;28;20295;-66
2023/12/16 06:22:55;;;;;;;;;;;;;;;;;;5087811;28;19912;-66
2023/12/16 06:25:21;;;;;;;;;;;;;;;;;;5089453;28;19912;-66
2023/12/16 06:27:47;;;;;;;;;;;;;;;;;;5090023;28;19924;-65
2023/12/16 06:30:13;;;;;;;;;;;;;;;;;;5089704;28;19915;-66
2023/12/16 06:32:39;;;;;;;;;;;;;;;;;;5092866;28;19912;-66
2023/12/16 06:35:05;;;;;;;;;;;;;;;;;;5084837;28;19948;-64
2023/12/16 06:37:31;;;;;;;;;;;;;;;;;;5081711;28;19960;-64
2023/12/16 06:39:57;;;;;;;;;;;;;;;;;;5080705;28;20400;-64
2023/12/16 06:42:23;;;;;;;;;;;;;;;;;;5092157;28;19919;-64
2023/12/16 06:44:49;;;;;;;;;;;;;;;;;;5089562;28;19912;-64
2023/12/16 06:47:15;;;;;;;;;;;;;;;;;;5084425;28;20599;-64
2023/12/16 06:49:41;;;;;;;;;;;;;;;;;;5081460;28;19995;-64
2023/12/16 06:52:06;;;;;;;;;;;;;;;;;;5076445;28;19916;-64
2023/12/16 06:54:33;;;;;;;;;;;;;;;;;;5092554;28;19943;-64
2023/12/16 06:56:59;;;;;;;;;;;;;;;;;;5087672;28;19912;-64
2023/12/16 06:59:24;;;;;;;;;;;;;;;;;;5090853;28;20319;-64
2023/12/16 07:01:51;;;;;;;;;;;;;;;;;;5091583;28;19912;-64
2023/12/16 07:04:16;;;;;;;;;;;;;;;;;;5091930;28;19915;-64
2023/12/16 07:06:42;;;;;;;;;;;;;;;;;;5086726;28;20757;-64
2023/12/16 07:09:08;;;;;;;;;;;;;;;;;;5072206;28;19952;-64
2023/12/16 07:11:35;;;;;;;;;;;;;;;;;;5091088;28;19914;-64
2023/12/16 07:14:01;;;;;;;;;;;;;;;;;;5092392;28;19958;-64
2023/12/16 07:16:30;;;;;;;;;;;;;;;;;;5091446;28;20322;-64
2023/12/16 07:18:56;;;;;;;;;;;;;;;;;;5091651;28;19915;-65
2023/12/16 07:21:22;;;;;;;;;;;;;;;;;;5082169;28;19955;-64
2023/12/16 07:23:48;;;;;;;;;;;;;;;;;;5083598;28;20333;-64
2023/12/16 07:26:14;;;;;;;;;;;;;;;;;;5087150;28;19919;-62
2023/12/16 07:28:40;;;;;;;;;;;;;;;;;;5087297;28;20272;-64
2023/12/16 07:31:06;;;;;;;;;;;;;;;;;;5081600;28;19912;-63
2023/12/16 07:33:31;;;;;;;;;;;;;;;;;;5095518;28;19937;-63
2023/12/16 07:35:57;;;;;;;;;;;;;;;;;;5094780;28;20367;-65
2023/12/16 07:38:23;;;;;;;;;;;;;;;;;;5085373;28;19916;-64
2023/12/16 07:40:49;;;;;;;;;;;;;;;;;;5080274;28;19958;-62
2023/12/16 07:43:15;;;;;;;;;;;;;;;;;;5094401;28;19912;-65
2023/12/16 07:45:41;;;;;;;;;;;;;;;;;;5081003;28;20413;-64
2023/12/16 07:48:07;;;;;;;;;;;;;;;;;;5088362;28;19916;-64
2023/12/16 07:50:33;;;;;;;;;;;;;;;;;;5094698;28;19959;-65
2023/12/16 07:52:59;;;;;;;;;;;;;;;;;;5095031;28;20352;-64
2023/12/16 07:55:27;;;;;;;;;;;;;;;;;;5095077;28;20363;-62
2023/12/16 07:57:53;;;;;;;;;;;;;;;;;;5094024;28;20320;-62
2023/12/16 08:00:19;;;;;;;;;;;;;;;;;;5089221;28;19959;-64
2023/12/16 08:02:45;;;;;;;;;;;;;;;;;;5086008;28;20000;-65
2023/12/16 08:05:11;;;;;;;;;;;;;;;;;;5094889;28;20404;-64
2023/12/16 08:07:37;;;;;;;;;;;;;;;;;;5094934;28;19922;-62
2023/12/16 08:10:03;;;;;;;;;;;;;;;;;;5093642;28;19912;-65
2023/12/16 08:12:29;;;;;;;;;;;;;;;;;;5092462;28;19993;-65
2023/12/16 08:14:55;;;;;;;;;;;;;;;;;;5094062;28;20041;-62
2023/12/16 08:17:21;;;;;;;;;;;;;;;;;;5094388;28;19982;-62
2023/12/16 08:19:47;;;;;;;;;;;;;;;;;;5093957;28;19912;-65
2023/12/16 08:22:13;;;;;;;;;;;;;;;;;;5093721;28;20002;-65
2023/12/16 08:24:39;;;;;;;;;;;;;;;;;;5093216;28;19943;-62
2023/12/16 08:27:05;;;;;;;;;;;;;;;;;;5094395;28;19916;-63
2023/12/16 08:29:31;;;;;;;;;;;;;;;;;;5093691;28;20003;-63
2023/12/16 08:31:57;;;;;;;;;;;;;;;;;;5085177;28;19913;-63
2023/12/16 08:34:22;;;;;;;;;;;;;;;;;;5084343;28;19970;-65
2023/12/16 08:36:48;;;;;;;;;;;;;;;;;;5077204;28;19916;-65
2023/12/16 08:39:14;;;;;;;;;;;;;;;;;;5092109;28;19915;-65
2023/12/16 08:41:40;;;;;;;;;;;;;;;;;;5094285;28;20315;-64
2023/12/16 08:44:06;;;;;;;;;;;;;;;;;;5094097;28;19950;-64
2023/12/16 08:46:32;;;;;;;;;;;;;;;;;;5082955;28;19912;-64
2023/12/16 08:48:58;;;;;;;;;;;;;;;;;;5080277;28;19964;-62
2023/12/16 08:51:24;;;;;;;;;;;;;;;;;;5078151;28;19939;-64
2023/12/16 08:53:50;;;;;;;;;;;;;;;;;;5081242;28;19920;-64
2023/12/16 08:56:17;;;;;;;;;;;;;;;;;;5089481;28;20343;-67
2023/12/16 08:58:43;;;;;;;;;;;;;;;;;;5093826;28;19999;-69
2023/12/16 09:01:10;;;;;;;;;;;;;;;;;;5091910;28;19920;-69
2023/12/16 09:03:36;;;;;;;;;;;;;;;;;;5080185;28;19964;-70
2023/12/16 09:06:02;;;;;;;;;;;;;;;;;;5085818;28;19955;-66
2023/12/16 09:08:28;;;;;;;;;;;;;;;;;;5091183;28;20615;-68
2023/12/16 09:10:54;;;;;;;;;;;;;;;;;;5086404;28;20015;-69
2023/12/16 09:13:20;;;;;;;;;;;;;;;;;;5093603;28;19995;-69
2023/12/16 09:15:46;;;;;;;;;;;;;;;;;;5080352;28;20265;-68
2023/12/16 09:18:12;;;;;;;;;;;;;;;;;;5090180;28;19941;-68
2023/12/16 09:20:38;;;;;;;;;;;;;;;;;;5086621;28;20007;-69
2023/12/16 09:23:03;;;;;;;;;;;;;;;;;;5090404;28;19912;-69
2023/12/16 09:25:29;;;;;;;;;;;;;;;;;;5082293;28;19931;-68
2023/12/16 09:27:55;;;;;;;;;;;;;;;;;;5091248;28;19971;-69
2023/12/16 09:30:22;;;;;;;;;;;;;;;;;;5090135;28;19912;-69
2023/12/16 09:32:48;;;;;;;;;;;;;;;;;;5090108;28;19916;-69
2023/12/16 09:35:14;;;;;;;;;;;;;;;;;;5078271;28;19912;-69
2023/12/16 09:37:40;;;;;;;;;;;;;;;;;;5077334;28;19920;-65
2023/12/16 09:40:05;;;;;;;;;;;;;;;;;;5085582;28;19916;-68
2023/12/16 09:42:31;;;;;;;;;;;;;;;;;;5078564;28;19920;-69
2023/12/16 09:44:57;;;;;;;;;;;;;;;;;;5087732;28;20013;-69
2023/12/16 09:47:23;;;;;;;;;;;;;;;;;;5090065;28;19970;-69
2023/12/16 09:49:49;;;;;;;;;;;;;;;;;;5081928;28;19951;-69
2023/12/16 09:52:15;;;;;;;;;;;;;;;;;;5082534;28;19951;-68
2023/12/16 09:54:41;;;;;;;;;;;;;;;;;;5083475;28;19957;-69
2023/12/16 09:57:07;;;;;;;;;;;;;;;;;;5092408;28;19912;-68
2023/12/16 09:59:33;;;;;;;;;;;;;;;;;;5088352;28;20372;-69
2023/12/16 10:01:59;;;;;;;;;;;;;;;;;;5087433;28;19918;-68
2023/12/16 10:04:24;;;;;;;;;;;;;;;;;;5088516;28;19916;-69
2023/12/16 10:06:51;;;;;;;;;;;;;;;;;;5075160;28;20041;-62
2023/12/16 10:09:17;;;;;;;;;;;;;;;;;;5085540;28;19917;-61
2023/12/16 10:11:43;;;;;;;;;;;;;;;;;;5088812;28;19944;-62
2023/12/16 10:14:08;;;;;;;;;;;;;;;;;;5087146;28;20360;-61
2023/12/16 10:16:34;;;;;;;;;;;;;;;;;;5090794;28;19998;-61
2023/12/16 10:19:00;;;;;;;;;;;;;;;;;;5086506;28;19948;-61
2023/12/16 10:21:26;;;;;;;;;;;;;;;;;;5073348;28;20262;-61
2023/12/16 10:23:52;;;;;;;;;;;;;;;;;;5074037;28;19913;-61
2023/12/16 10:26:18;;;;;;;;;;;;;;;;;;5079231;28;20396;-62
2023/12/16 10:28:44;;;;;;;;;;;;;;;;;;5091821;28;20391;-61
2023/12/16 10:31:10;;;;;;;;;;;;;;;;;;5081509;28;19919;-61
2023/12/16 10:33:36;;;;;;;;;;;;;;;;;;5081608;28;19928;-61
2023/12/16 10:36:02;;;;;;;;;;;;;;;;;;5072096;28;19974;-61
2023/12/16 10:38:28;;;;;;;;;;;;;;;;;;5089955;28;20007;-59
2023/12/16 10:40:54;;;;;;;;;;;;;;;;;;5091747;28;19930;-62
2023/12/16 10:43:20;;;;;;;;;;;;;;;;;;5085610;28;19912;-61
2023/12/16 10:45:46;;;;;;;;;;;;;;;;;;5091485;28;19999;-61
2023/12/16 10:48:12;;;;;;;;;;;;;;;;;;5090808;28;19927;-62
2023/12/16 10:50:40;;;;;;;;;;;;;;;;;;5091622;28;19935;-62
2023/12/16 10:53:06;;;;;;;;;;;;;;;;;;5087731;28;19912;-62
2023/12/16 10:55:32;;;;;;;;;;;;;;;;;;5082324;28;20391;-62
2023/12/16 10:57:57;;;;;;;;;;;;;;;;;;5084335;28;20023;-62
2023/12/16 11:00:23;;;;;;;;;;;;;;;;;;5081704;28;19947;-63
2023/12/16 11:02:50;;;;;;;;;;;;;;;;;;5078979;28;19917;-61
2023/12/16 11:05:17;;;;;;;;;;;;;;;;;;5091885;28;20277;-61
2023/12/16 11:07:43;;;;;;;;;;;;;;;;;;5079216;28;19951;-61
2023/12/16 11:10:09;;;;;;;;;;;;;;;;;;5082769;28;19908;-62
2023/12/16 11:12:35;;;;;;;;;;;;;;;;;;5081264;28;20006;-61
2023/12/16 11:15:01;;;;;;;;;;;;;;;;;;5091881;28;20674;-61
2023/12/16 11:17:27;;;;;;;;;;;;;;;;;;5079651;28;19943;-61
2023/12/16 11:19:53;;;;;;;;;;;;;;;;;;5080673;28;19908;-62
2023/12/16 11:22:19;;;;;;;;;;;;;;;;;;5088652;28;19919;-62
2023/12/16 11:24:45;;;;;;;;;;;;;;;;;;5091681;28;20409;-62
2023/12/16 11:27:11;;;;;;;;;;;;;;;;;;5091190;28;20021;-62
2023/12/16 11:29:38;;;;;;;;;;;;;;;;;;5091350;28;19963;-61
2023/12/16 11:32:04;;;;;;;;;;;;;;;;;;5090499;28;19968;-63
2023/12/16 11:34:30;;;;;;;;;;;;;;;;;;5091451;28;19916;-62
2023/12/16 11:37:02;;;;;;;;;;;;;;;;;;5090673;28;19973;-62
2023/12/16 11:39:28;;;;;;;;;;;;;;;;;;5090043;28;20390;-63
2023/12/16 11:41:54;;;;;;;;;;;;;;;;;;5086126;28;19916;-62
2023/12/16 11:44:20;;;;;;;;;;;;;;;;;;5088157;28;20363;-62
2023/12/16 11:46:46;;;;;;;;;;;;;;;;;;5086373;28;19951;-61
2023/12/16 11:49:14;;;;;;;;;;;;;;;;;;5089396;28;19916;-62
2023/12/16 11:51:40;;;;;;;;;;;;;;;;;;5081043;28;19916;-62
2023/12/16 11:54:06;;;;;;;;;;;;;;;;;;5074629;28;19959;-62
2023/12/16 11:56:33;;;;;;;;;;;;;;;;;;5082159;28;20500;-62
2023/12/16 11:58:59;;;;;;;;;;;;;;;;;;5081531;28;19919;-63
2023/12/16 12:01:25;;;;;;;;;;;;;;;;;;5089415;28;19912;-62
2023/12/16 12:03:51;;;;;;;;;;;;;;;;;;5083298;28;19912;-62
2023/12/16 12:06:17;;;;;;;;;;;;;;;;;;5081454;28;20313;-62
2023/12/16 12:08:44;;;;;;;;;;;;;;;;;;5090283;28;19920;-62
2023/12/16 12:11:11;;;;;;;;;;;;;;;;;;5083069;28;19916;-62
2023/12/16 12:13:37;;;;;;;;;;;;;;;;;;5084153;28;19943;-62
2023/12/16 12:16:03;;;;;;;;;;;;;;;;;;5086597;28;19920;-62
2023/12/16 12:18:29;;;;;;;;;;;;;;;;;;5084980;28;20021;-62
2023/12/16 12:20:55;;;;;;;;;;;;;;;;;;5089698;28;19920;-62
2023/12/16 12:23:21;;;;;;;;;;;;;;;;;;5085468;28;19972;-62
2023/12/16 12:25:47;;;;;;;;;;;;;;;;;;5093830;28;19908;-63
2023/12/16 12:28:13;;;;;;;;;;;;;;;;;;5093466;28;20359;-64
2023/12/16 12:30:39;;;;;;;;;;;;;;;;;;5088037;28;19940;-64
2023/12/16 12:33:05;;;;;;;;;;;;;;;;;;5081395;28;20283;-63
2023/12/16 12:35:31;;;;;;;;;;;;;;;;;;5080465;28;19919;-63
2023/12/16 12:37:57;;;;;;;;;;;;;;;;;;5088357;28;19960;-64
2023/12/16 12:40:24;;;;;;;;;;;;;;;;;;5086700;28;19916;-64
2023/12/16 12:42:50;;;;;;;;;;;;;;;;;;5081602;28;20390;-63
2023/12/16 12:45:16;;;;;;;;;;;;;;;;;;5087984;28;20006;-63
2023/12/16 12:47:42;;;;;;;;;;;;;;;;;;5094330;28;19919;-64
2023/12/16 12:50:08;;;;;;;;;;;;;;;;;;5085845;28;20276;-64
2023/12/16 12:52:34;;;;;;;;;;;;;;;;;;5081950;28;19916;-64
2023/12/16 12:55:00;;;;;;;;;;;;;;;;;;5080726;28;20053;-63
2023/12/16 12:57:26;;;;;;;;;;;;;;;;;;5089940;28;19998;-64
2023/12/16 12:59:52;;;;;;;;;;;;;;;;;;5092402;28;19919;-63
2023/12/16 13:02:18;;;;;;;;;;;;;;;;;;5092748;28;19912;-64
2023/12/16 13:04:43;;;;;;;;;;;;;;;;;;5090522;28;19916;-64
2023/12/16 13:07:09;;;;;;;;;;;;;;;;;;5083934;28;19919;-64
2023/12/16 13:09:35;;;;;;;;;;;;;;;;;;5090048;28;19955;-63
2023/12/16 13:12:01;;;;;;;;;;;;;;;;;;5084536;28;19982;-64
2023/12/16 13:14:29;;;;;;;;;;;;;;;;;;5085443;28;19920;-63
2023/12/16 13:16:54;;;;;;;;;;;;;;;;;;5085974;28;20038;-64
2023/12/16 13:19:20;;;;;;;;;;;;;;;;;;5079992;28;20117;-64
2023/12/16 13:21:46;;;;;;;;;;;;;;;;;;5086096;28;20386;-63
2023/12/16 13:24:13;;;;;;;;;;;;;;;;;;5076935;28;19912;-63
2023/12/16 13:26:39;;;;;;;;;;;;;;;;;;5083717;28;20339;-63
2023/12/16 13:29:05;;;;;;;;;;;;;;;;;;5092310;28;20015;-63
2023/12/16 13:31:31;;;;;;;;;;;;;;;;;;5089006;28;19914;-64
2023/12/16 13:33:57;;;;;;;;;;;;;;;;;;5092325;28;19991;-64
2023/12/16 13:36:24;;;;;;;;;;;;;;;;;;5088909;28;19931;-66
2023/12/16 13:38:50;;;;;;;;;;;;;;;;;;5089029;28;19916;-66
2023/12/16 13:41:16;;;;;;;;;;;;;;;;;;5092711;28;20000;-66
2023/12/16 13:43:44;;;;;;;;;;;;;;;;;;5090612;28;19908;-66
2023/12/16 13:46:10;;;;;;;;;;;;;;;;;;5084851;28;19916;-66
2023/12/16 13:48:35;;;;;;;;;;;;;;;;;;5078246;28;19961;-66
2023/12/16 13:51:01;;;;;;;;;;;;;;;;;;5089593;28;19912;-66
2023/12/16 13:53:27;;;;;;;;;;;;;;;;;;5082704;28;20006;-66
2023/12/16 13:55:53;;;;;;;;;;;;;;;;;;5092291;28;20410;-66
2023/12/16 13:58:21;;;;;;;;;;;;;;;;;;5085144;28;20379;-66
2023/12/16 14:00:47;;;;;;;;;;;;;;;;;;5085281;28;19916;-66
2023/12/16 14:03:13;;;;;;;;;;;;;;;;;;5075436;28;19951;-66
2023/12/16 14:05:39;;;;;;;;;;;;;;;;;;5087732;28;19995;-66
2023/12/16 14:08:04;;;;;;;;;;;;;;;;;;5091877;28;19926;-65
2023/12/16 14:10:30;;;;;;;;;;;;;;;;;;5088337;28;19962;-65
2023/12/16 14:12:56;;;;;;;;;;;;;;;;;;5079486;28;20406;-65
2023/12/16 14:15:22;;;;;;;;;;;;;;;;;;5077908;28;19913;-65
2023/12/16 14:17:48;;;;;;;;;;;;;;;;;;5087069;28;19951;-65
2023/12/16 14:20:14;;;;;;;;;;;;;;;;;;5084390;28;20277;-66
2023/12/16 14:22:40;;;;;;;;;;;;;;;;;;5085406;28;19916;-66
2023/12/16 14:25:09;;;;;;;;;;;;;;;;;;5080510;28;19973;-66
2023/12/16 14:27:35;;;;;;;;;;;;;;;;;;5091656;28;20693;-67
2023/12/16 14:30:01;;;;;;;;;;;;;;;;;;5089870;28;19959;-66
2023/12/16 14:32:27;;;;;;;;;;;;;;;;;;5077553;28;19918;-65
2023/12/16 14:34:53;;;;;;;;;;;;;;;;;;5087033;28;19977;-65
2023/12/16 14:37:19;;;;;;;;;;;;;;;;;;5091408;28;19919;-66
2023/12/16 14:39:45;;;;;;;;;;;;;;;;;;5076669;28;19996;-67
2023/12/16 14:42:12;;;;;;;;;;;;;;;;;;5072875;28;19993;-67
2023/12/16 14:44:38;;;;;;;;;;;;;;;;;;5090701;28;19999;-66
2023/12/16 14:47:04;;;;;;;;;;;;;;;;;;5088657;28;20030;-63
2023/12/16 14:49:30;;;;;;;;;;;;;;;;;;5088411;28;19974;-63
2023/12/16 14:51:56;;;;;;;;;;;;;;;;;;5091823;28;19998;-64
2023/12/16 14:54:22;;;;;;;;;;;;;;;;;;5086872;28;19974;-63
2023/12/16 14:56:48;;;;;;;;;;;;;;;;;;5090335;28;19916;-63
2023/12/16 14:59:14;;;;;;;;;;;;;;;;;;5086943;28;19996;-61
2023/12/16 15:01:40;;;;;;;;;;;;;;;;;;5091609;28;19916;-60
2023/12/16 15:04:06;;;;;;;;;;;;;;;;;;5074976;28;19920;-61
2023/12/16 15:06:32;;;;;;;;;;;;;;;;;;5084318;28;19948;-61
2023/12/16 15:08:58;;;;;;;;;;;;;;;;;;5088090;28;20383;-61
2023/12/16 15:11:24;;;;;;;;;;;;;;;;;;5080582;28;20414;-61
2023/12/16 15:13:50;;;;;;;;;;;;;;;;;;5082884;28;19912;-61
2023/12/16 15:16:15;;;;;;;;;;;;;;;;;;5083419;28;20107;-61
2023/12/16 15:18:42;;;;;;;;;;;;;;;;;;5077592;28;19913;-61
2023/12/16 15:21:07;;;;;;;;;;;;;;;;;;5084785;28;20431;-61
2023/12/16 15:23:33;;;;;;;;;;;;;;;;;;5082020;28;19959;-63
2023/12/16 15:25:59;;;;;;;;;;;;;;;;;;5086147;28;20055;-63
2023/12/16 15:28:25;;;;;;;;;;;;;;;;;;5084890;28;19920;-63
2023/12/16 15:30:51;;;;;;;;;;;;;;;;;;5081958;28;19913;-63
2023/12/16 15:33:17;;;;;;;;;;;;;;;;;;5088943;28;19916;-63
2023/12/16 15:35:44;;;;;;;;;;;;;;;;;;5088951;28;19955;-61
2023/12/16 15:38:10;;;;;;;;;;;;;;;;;;5084592;28;20385;-63
2023/12/16 15:40:38;;;;;;;;;;;;;;;;;;5082256;28;19912;-62
2023/12/16 15:43:06;;;;;;;;;;;;;;;;;;5090451;28;21550;-64
2023/12/16 15:45:32;;;;;;;;;;;;;;;;;;5092436;28;19916;-62
2023/12/16 15:47:58;;;;;;;;;;;;;;;;;;5091561;28;20391;-62
2023/12/16 15:50:23;;;;;;;;;;;;;;;;;;5092437;28;19933;-62
2023/12/16 15:52:49;;;;;;;;;;;;;;;;;;5091033;28;20046;-62
2023/12/16 15:55:16;;;;;;;;;;;;;;;;;;5091054;28;19916;-62
2023/12/16 15:57:41;;;;;;;;;;;;;;;;;;5093859;28;19918;-62
2023/12/16 16:00:08;;;;;;;;;;;;;;;;;;5095497;28;19912;-62
2023/12/16 16:02:34;;;;;;;;;;;;;;;;;;5090762;28;19909;-62
2023/12/16 16:05:00;;;;;;;;;;;;;;;;;;5095007;28;20420;-63
2023/12/16 16:07:26;;;;;;;;;;;;;;;;;;5085324;28;20300;-63
2023/12/16 16:09:52;;;;;;;;;;;;;;;;;;5090222;28;19916;-62
2023/12/16 16:12:18;;;;;;;;;;;;;;;;;;5084964;28;19970;-64
2023/12/16 16:14:44;;;;;;;;;;;;;;;;;;5081293;28;20441;-63
2023/12/16 16:17:09;;;;;;;;;;;;;;;;;;5085936;28;19923;-62
2023/12/16 16:19:35;;;;;;;;;;;;;;;;;;5081779;28;19993;-63
2023/12/16 16:22:01;;;;;;;;;;;;;;;;;;5076863;28;20009;-63
2023/12/16 16:24:27;;;;;;;;;;;;;;;;;;5087995;28;19913;-62
2023/12/16 16:26:53;;;;;;;;;;;;;;;;;;5086534;28;19927;-62
2023/12/16 16:29:19;;;;;;;;;;;;;;;;;;5082275;28;19924;-63
2023/12/16 16:31:45;;;;;;;;;;;;;;;;;;5089093;28;20014;-62
2023/12/16 16:34:11;;;;;;;;;;;;;;;;;;5095123;28;20436;-62
2023/12/16 16:36:37;;;;;;;;;;;;;;;;;;5093146;28;19912;-62